sensor_id;sensor_type;location;lat;lon;timestamp;pressure;altitude;pressure_sealevel;temperature;humidity
28665;BME280;15850;47.524;7.814;2022-07-09T16:58:58;98270.53;;;27.34;37.80
28665;BME280;15850;47.524;7.814;2022-07-09T17:01:23;98330.84;;;27.15;38.68
28665;BME280;15850;47.524;7.814;2022-07-09T17:03:49;98288.28;;;27.08;36.61
28665;BME280;15850;47.524;7.814;2022-07-09T17:06:14;98331.97;;;27.18;35.58
28665;BME280;15850;47.524;7.814;2022-07-09T17:08:40;98084.66;;;25.52;35.92
28665;BME280;15850;47.524;7.814;2022-07-09T17:11:05;98326.38;;;27.18;36.17
28665;BME280;15850;47.524;7.814;2022-07-09T17:13:31;98327.59;;;27.17;36.73
28665;BME280;15850;47.524;7.814;2022-07-09T17:15:58;98327.91;;;27.03;39.29
28665;BME280;15850;47.524;7.814;2022-07-09T17:18:24;98332.22;;;26.47;38.07
28665;BME280;15850;47.524;7.814;2022-07-09T17:20:49;98320.03;;;26.14;39.79
28665;BME280;15850;47.524;7.814;2022-07-09T17:23:15;98330.75;;;26.39;38.17
28665;BME280;15850;47.524;7.814;2022-07-09T17:25:41;98333.00;;;26.68;37.36
28665;BME280;15850;47.524;7.814;2022-07-09T17:28:06;98332.84;;;26.75;37.78
28665;BME280;15850;47.524;7.814;2022-07-09T17:30:32;98343.66;;;26.73;37.44
28665;BME280;15850;47.524;7.814;2022-07-09T17:32:59;98342.81;;;26.09;38.60
28665;BME280;15850;47.524;7.814;2022-07-09T17:35:25;98287.03;;;25.89;39.15
28665;BME280;15850;47.524;7.814;2022-07-09T17:37:52;98276.94;;;25.72;40.88
28665;BME280;15850;47.524;7.814;2022-07-09T17:40:18;98331.88;;;25.98;40.72
28665;BME280;15850;47.524;7.814;2022-07-09T17:42:43;98234.41;;;25.21;40.32
28665;BME280;15850;47.524;7.814;2022-07-09T17:45:09;98301.91;;;25.79;42.94
28665;BME280;15850;47.524;7.814;2022-07-09T17:47:34;98325.94;;;25.96;40.02
28665;BME280;15850;47.524;7.814;2022-07-09T17:50:01;98326.00;;;25.93;40.01
28665;BME280;15850;47.524;7.814;2022-07-09T17:52:27;97895.56;;;23.26;41.25
28665;BME280;15850;47.524;7.814;2022-07-09T17:54:52;98261.63;;;25.37;40.43
28665;BME280;15850;47.524;7.814;2022-07-09T17:57:18;98271.66;;;25.30;40.23
28665;BME280;15850;47.524;7.814;2022-07-09T17:59:44;98321.16;;;25.46;40.23
28665;BME280;15850;47.524;7.814;2022-07-09T18:02:10;98318.56;;;25.32;41.00
28665;BME280;15850;47.524;7.814;2022-07-09T18:04:35;98265.34;;;24.69;41.10
28665;BME280;15850;47.524;7.814;2022-07-09T18:07:03;98186.13;;;24.15;41.48
28665;BME280;15850;47.524;7.814;2022-07-09T18:09:28;97979.72;;;22.74;41.56
28665;BME280;15850;47.524;7.814;2022-07-09T18:11:54;98330.50;;;24.71;44.75
28665;BME280;15850;47.524;7.814;2022-07-09T18:14:19;98329.16;;;24.49;45.03
28665;BME280;15850;47.524;7.814;2022-07-09T18:16:45;98327.03;;;24.22;44.26
28665;BME280;15850;47.524;7.814;2022-07-09T18:19:10;98235.84;;;23.68;46.46
28665;BME280;15850;47.524;7.814;2022-07-09T18:21:36;98327.59;;;24.06;48.18
28665;BME280;15850;47.524;7.814;2022-07-09T18:24:03;98329.69;;;23.95;45.44
28665;BME280;15850;47.524;7.814;2022-07-09T18:26:29;98332.78;;;24.04;47.51
28665;BME280;15850;47.524;7.814;2022-07-09T18:28:54;98327.59;;;24.06;47.35
28665;BME280;15850;47.524;7.814;2022-07-09T18:31:35;98311.09;;;23.88;45.72
28665;BME280;15850;47.524;7.814;2022-07-09T18:34:01;98325.69;;;23.96;45.80
28665;BME280;15850;47.524;7.814;2022-07-09T18:36:26;98334.50;;;23.91;45.91
28665;BME280;15850;47.524;7.814;2022-07-09T18:38:54;98231.56;;;23.08;45.80
28665;BME280;15850;47.524;7.814;2022-07-09T18:41:27;98335.44;;;23.66;46.49
28665;BME280;15850;47.524;7.814;2022-07-09T18:43:52;98262.06;;;23.12;46.53
28665;BME280;15850;47.524;7.814;2022-07-09T18:46:18;98278.34;;;23.06;48.34
28665;BME280;15850;47.524;7.814;2022-07-09T18:48:55;98335.59;;;23.45;48.90
28665;BME280;15850;47.524;7.814;2022-07-09T18:51:20;98279.19;;;22.92;46.96
28665;BME280;15850;47.524;7.814;2022-07-09T18:53:46;98277.31;;;22.79;49.25
28665;BME280;15850;47.524;7.814;2022-07-09T18:56:11;98257.09;;;22.74;47.88
28665;BME280;15850;47.524;7.814;2022-07-09T18:58:38;98341.06;;;22.86;52.63
28665;BME280;15850;47.524;7.814;2022-07-09T19:01:06;98224.94;;;21.82;53.45
28665;BME280;15850;47.524;7.814;2022-07-09T19:03:31;98342.78;;;22.40;54.69
28665;BME280;15850;47.524;7.814;2022-07-09T19:05:57;98298.91;;;21.78;56.57
28665;BME280;15850;47.524;7.814;2022-07-09T19:08:22;98305.69;;;21.59;58.12
28665;BME280;15850;47.524;7.814;2022-07-09T19:10:48;98353.53;;;21.77;62.01
28665;BME280;15850;47.524;7.814;2022-07-09T19:13:14;98340.47;;;21.64;63.10
28665;BME280;15850;47.524;7.814;2022-07-09T19:15:41;98220.88;;;20.54;64.01
28665;BME280;15850;47.524;7.814;2022-07-09T19:18:06;98304.34;;;20.96;64.03
28665;BME280;15850;47.524;7.814;2022-07-09T19:20:32;98363.28;;;21.14;64.48
28665;BME280;15850;47.524;7.814;2022-07-09T19:22:57;98341.03;;;20.78;65.25
28665;BME280;15850;47.524;7.814;2022-07-09T19:25:23;98343.25;;;20.48;68.07
28665;BME280;15850;47.524;7.814;2022-07-09T19:27:49;98354.78;;;20.57;68.36
28665;BME280;15850;47.524;7.814;2022-07-09T19:30:14;98357.38;;;20.39;71.84
28665;BME280;15850;47.524;7.814;2022-07-09T19:32:41;98011.91;;;18.05;72.38
28665;BME280;15850;47.524;7.814;2022-07-09T19:35:07;98071.41;;;18.17;71.55
28665;BME280;15850;47.524;7.814;2022-07-09T19:37:33;98351.91;;;19.84;72.54
28665;BME280;15850;47.524;7.814;2022-07-09T19:39:58;98368.50;;;19.87;71.00
28665;BME280;15850;47.524;7.814;2022-07-09T19:42:24;98349.41;;;19.71;71.84
28665;BME280;15850;47.524;7.814;2022-07-09T19:44:49;98234.88;;;19.03;70.59
28665;BME280;15850;47.524;7.814;2022-07-09T19:47:15;97914.88;;;17.04;72.47
28665;BME280;15850;47.524;7.814;2022-07-09T19:49:42;98376.78;;;19.87;73.96
28665;BME280;15850;47.524;7.814;2022-07-09T19:52:07;98362.31;;;19.60;76.52
28665;BME280;15850;47.524;7.814;2022-07-09T19:54:33;98367.66;;;19.42;76.86
28665;BME280;15850;47.524;7.814;2022-07-09T19:56:59;98382.16;;;19.36;79.21
28665;BME280;15850;47.524;7.814;2022-07-09T19:59:24;98250.06;;;18.52;80.11
28665;BME280;15850;47.524;7.814;2022-07-09T20:01:50;98386.16;;;19.05;85.37
28665;BME280;15850;47.524;7.814;2022-07-09T20:04:15;98386.88;;;18.98;85.62
28665;BME280;15850;47.524;7.814;2022-07-09T20:06:42;98393.97;;;18.99;81.28
28665;BME280;15850;47.524;7.814;2022-07-09T20:09:08;98391.00;;;19.15;79.36
28665;BME280;15850;47.524;7.814;2022-07-09T20:11:33;98391.59;;;19.31;77.35
28665;BME280;15850;47.524;7.814;2022-07-09T20:13:59;98352.69;;;19.06;77.43
28665;BME280;15850;47.524;7.814;2022-07-09T20:16:25;98400.94;;;19.23;80.52
28665;BME280;15850;47.524;7.814;2022-07-09T20:18:50;98403.81;;;19.00;81.00
28665;BME280;15850;47.524;7.814;2022-07-09T20:21:16;98363.91;;;18.60;84.78
28665;BME280;15850;47.524;7.814;2022-07-09T20:23:43;98057.56;;;16.63;82.14
28665;BME280;15850;47.524;7.814;2022-07-09T20:26:09;98387.13;;;18.59;85.04
28665;BME280;15850;47.524;7.814;2022-07-09T20:28:35;98399.59;;;18.76;85.14
28665;BME280;15850;47.524;7.814;2022-07-09T20:31:00;98391.91;;;18.62;86.19
28665;BME280;15850;47.524;7.814;2022-07-09T20:33:26;98387.94;;;18.60;87.27
28665;BME280;15850;47.524;7.814;2022-07-09T20:35:51;98392.34;;;18.64;85.53
28665;BME280;15850;47.524;7.814;2022-07-09T20:38:17;98400.13;;;18.85;84.23
28665;BME280;15850;47.524;7.814;2022-07-09T20:40:44;97979.22;;;16.00;87.04
28665;BME280;15850;47.524;7.814;2022-07-09T20:43:09;98310.84;;;18.06;87.74
28665;BME280;15850;47.524;7.814;2022-07-09T20:45:35;98397.78;;;18.34;92.67
28665;BME280;15850;47.524;7.814;2022-07-09T20:48:01;98392.19;;;18.27;92.09
28665;BME280;15850;47.524;7.814;2022-07-09T20:50:27;98372.69;;;17.86;94.97
28665;BME280;15850;47.524;7.814;2022-07-09T20:52:52;98405.41;;;18.18;93.47
28665;BME280;15850;47.524;7.814;2022-07-09T20:55:18;98398.91;;;18.03;95.29
28665;BME280;15850;47.524;7.814;2022-07-09T20:57:45;98398.84;;;17.99;92.76
28665;BME280;15850;47.524;7.814;2022-07-09T21:00:11;98405.81;;;17.93;95.93
28665;BME280;15850;47.524;7.814;2022-07-09T21:02:37;98392.28;;;17.84;95.42
28665;BME280;15850;47.524;7.814;2022-07-09T21:05:02;98411.00;;;17.75;99.24
28665;BME280;15850;47.524;7.814;2022-07-09T21:07:28;98398.38;;;17.74;97.44
28665;BME280;15850;47.524;7.814;2022-07-09T21:09:54;98395.72;;;17.55;100.00
28665;BME280;15850;47.524;7.814;2022-07-09T21:12:19;98406.34;;;17.56;100.00
28665;BME280;15850;47.524;7.814;2022-07-09T21:14:46;98404.91;;;17.43;100.00
28665;BME280;15850;47.524;7.814;2022-07-09T21:17:12;98406.03;;;17.38;100.00
28665;BME280;15850;47.524;7.814;2022-07-09T21:19:37;98372.91;;;17.12;100.00
28665;BME280;15850;47.524;7.814;2022-07-09T21:22:03;98360.97;;;17.04;100.00
28665;BME280;15850;47.524;7.814;2022-07-09T21:24:28;98397.34;;;17.36;100.00
28665;BME280;15850;47.524;7.814;2022-07-09T21:26:54;98404.28;;;17.30;100.00
28665;BME280;15850;47.524;7.814;2022-07-09T21:29:19;98393.59;;;17.25;100.00
28665;BME280;15850;47.524;7.814;2022-07-09T21:31:46;98356.63;;;17.03;100.00
28665;BME280;15850;47.524;7.814;2022-07-09T21:34:12;98307.47;;;16.59;100.00
28665;BME280;15850;47.524;7.814;2022-07-09T21:36:37;98278.25;;;16.51;100.00
28665;BME280;15850;47.524;7.814;2022-07-09T21:39:03;98390.47;;;17.07;100.00
28665;BME280;15850;47.524;7.814;2022-07-09T21:41:28;98390.13;;;17.09;100.00
28665;BME280;15850;47.524;7.814;2022-07-09T21:43:54;98370.97;;;16.93;100.00
28665;BME280;15850;47.524;7.814;2022-07-09T21:46:19;98380.06;;;16.97;100.00
28665;BME280;15850;47.524;7.814;2022-07-09T21:48:46;98383.66;;;17.21;100.00
28665;BME280;15850;47.524;7.814;2022-07-09T21:51:12;98371.03;;;16.97;100.00
28665;BME280;15850;47.524;7.814;2022-07-09T21:53:37;98387.31;;;16.86;100.00
28665;BME280;15850;47.524;7.814;2022-07-09T21:56:04;98218.94;;;15.72;100.00
28665;BME280;15850;47.524;7.814;2022-07-09T21:58:29;98382.94;;;16.65;100.00
28665;BME280;15850;47.524;7.814;2022-07-09T22:00:55;98378.31;;;16.70;100.00
28665;BME280;15850;47.524;7.814;2022-07-09T22:03:22;98348.22;;;16.57;100.00
28665;BME280;15850;47.524;7.814;2022-07-09T22:05:50;98160.19;;;15.22;100.00
28665;BME280;15850;47.524;7.814;2022-07-09T22:08:15;98382.53;;;16.48;100.00
28665;BME280;15850;47.524;7.814;2022-07-09T22:10:41;98378.41;;;16.38;100.00
28665;BME280;15850;47.524;7.814;2022-07-09T22:13:07;98375.88;;;16.49;100.00
28665;BME280;15850;47.524;7.814;2022-07-09T22:15:32;98369.97;;;16.47;100.00
28665;BME280;15850;47.524;7.814;2022-07-09T22:17:58;98376.97;;;16.44;100.00
28665;BME280;15850;47.524;7.814;2022-07-09T22:20:25;98372.91;;;16.38;100.00
28665;BME280;15850;47.524;7.814;2022-07-09T22:22:52;98373.63;;;16.35;100.00
28665;BME280;15850;47.524;7.814;2022-07-09T22:25:17;98371.47;;;16.44;100.00
28665;BME280;15850;47.524;7.814;2022-07-09T22:27:43;98337.19;;;16.18;100.00
28665;BME280;15850;47.524;7.814;2022-07-09T22:30:11;98373.78;;;16.42;100.00
28665;BME280;15850;47.524;7.814;2022-07-09T22:32:36;98264.88;;;15.44;100.00
28665;BME280;15850;47.524;7.814;2022-07-09T22:35:02;98375.97;;;16.17;100.00
28665;BME280;15850;47.524;7.814;2022-07-09T22:37:28;98269.75;;;15.66;100.00
28665;BME280;15850;47.524;7.814;2022-07-09T22:39:55;98304.47;;;15.94;100.00
28665;BME280;15850;47.524;7.814;2022-07-09T22:42:20;98364.53;;;16.31;100.00
28665;BME280;15850;47.524;7.814;2022-07-09T22:44:46;98297.84;;;15.95;100.00
28665;BME280;15850;47.524;7.814;2022-07-09T22:47:11;98374.25;;;16.63;100.00
28665;BME280;15850;47.524;7.814;2022-07-09T22:49:37;98369.97;;;16.47;100.00
28665;BME280;15850;47.524;7.814;2022-07-09T22:52:03;98337.78;;;16.28;100.00
28665;BME280;15850;47.524;7.814;2022-07-09T22:54:29;98327.84;;;15.88;100.00
28665;BME280;15850;47.524;7.814;2022-07-09T22:56:56;98368.91;;;16.16;100.00
28665;BME280;15850;47.524;7.814;2022-07-09T22:59:22;98366.78;;;16.09;100.00
28665;BME280;15850;47.524;7.814;2022-07-09T23:01:47;98355.59;;;15.83;100.00
28665;BME280;15850;47.524;7.814;2022-07-09T23:04:13;98360.78;;;15.88;100.00
28665;BME280;15850;47.524;7.814;2022-07-09T23:06:39;98220.13;;;15.08;100.00
28665;BME280;15850;47.524;7.814;2022-07-09T23:09:05;98363.19;;;15.89;100.00
28665;BME280;15850;47.524;7.814;2022-07-09T23:11:32;98364.94;;;15.82;100.00
28665;BME280;15850;47.524;7.814;2022-07-09T23:14:00;98280.59;;;15.15;100.00
28665;BME280;15850;47.524;7.814;2022-07-09T23:16:28;98239.50;;;14.84;100.00
28665;BME280;15850;47.524;7.814;2022-07-09T23:18:53;98321.47;;;15.52;100.00
28665;BME280;15850;47.524;7.814;2022-07-09T23:21:19;98362.91;;;15.79;100.00
28665;BME280;15850;47.524;7.814;2022-07-09T23:23:44;98328.94;;;15.67;100.00
28665;BME280;15850;47.524;7.814;2022-07-09T23:26:10;98357.00;;;15.77;100.00
28665;BME280;15850;47.524;7.814;2022-07-09T23:28:36;98321.72;;;15.15;100.00
28665;BME280;15850;47.524;7.814;2022-07-09T23:31:03;98352.09;;;15.54;100.00
28665;BME280;15850;47.524;7.814;2022-07-09T23:33:28;98356.78;;;15.54;100.00
28665;BME280;15850;47.524;7.814;2022-07-09T23:35:54;98319.88;;;15.35;100.00
28665;BME280;15850;47.524;7.814;2022-07-09T23:38:19;98353.75;;;15.59;100.00
28665;BME280;15850;47.524;7.814;2022-07-09T23:40:45;98294.25;;;15.27;100.00
28665;BME280;15850;47.524;7.814;2022-07-09T23:43:11;98350.69;;;15.60;100.00
28665;BME280;15850;47.524;7.814;2022-07-09T23:45:36;98324.50;;;15.47;100.00
28665;BME280;15850;47.524;7.814;2022-07-09T23:48:04;98354.25;;;15.77;100.00
28665;BME280;15850;47.524;7.814;2022-07-09T23:50:29;98348.59;;;15.69;100.00
28665;BME280;15850;47.524;7.814;2022-07-09T23:52:55;98350.75;;;15.48;100.00
28665;BME280;15850;47.524;7.814;2022-07-09T23:55:20;98347.56;;;15.62;100.00
28665;BME280;15850;47.524;7.814;2022-07-09T23:57:46;98343.25;;;15.61;100.00
